Hawthorne, Louisiana
Current Conditions -  °F | °C
As of 5:58 AM on Thursday 18 Dec 2014 (Local Time) from KPOE Reporting Station
Overcast Overcast  
Wind Chill: 52°   Ceiling: 1400
Heat Index: 52°   Visibility: 10mi
Dew Point: 45°   Wind: 3mph
Humidity: 76%   Direction: NA
Pressure: 30.1"   Gusts: NA
Location:  31.2063°N, 93.1344°W
Report Text: KPOE 181158Z AUTO VRB03KT 10SM OVC014 11/07 A3010 RMK AO2 SLP195 56008
Loading
Personal Weather Stations






























Interactive Weather Map New forecast layout! Learn more

10-Day Weather Forecast

Advertisements
Track Severe Weather on mobile